Time;durP1;ratioP1;P1;durP2;ratioP2;P2;SDS_P1;SDS_P2;PMS_P1;PMS_P2;Temp;Humidity;BMP_temperature;BMP_pressure;BME280_temperature;BME280_humidity;BME280_pressure;Samples;Min_cycle;Max_cycle;Signal;HPM_P1;HPM_P2
2021/05/08 00:00:36;;;;;;;3.20;1.50;;;21.30;44.60;;;;;;5035907;28;20359;-33
2021/05/08 00:03:03;;;;;;;2.80;1.73;;;21.30;44.70;;;;;;5033984;28;20087;-34
2021/05/08 00:05:29;;;;;;;5.25;1.48;;;21.30;44.60;;;;;;5023973;28;20053;-38
2021/05/08 00:07:55;;;;;;;1.88;1.30;;;21.20;44.60;;;;;;5034053;28;20623;-33
2021/05/08 00:10:21;;;;;;;3.40;1.30;;;21.20;44.60;;;;;;5033141;28;20117;-34
2021/05/08 00:12:47;;;;;;;3.00;1.25;;;21.20;45.00;;;;;;5032603;28;20036;-34
2021/05/08 00:15:15;;;;;;;2.75;1.20;;;21.20;44.70;;;;;;5033930;28;20025;-34
2021/05/08 00:17:40;;;;;;;2.25;1.30;;;21.10;44.60;;;;;;5033397;28;20017;-34
2021/05/08 00:20:08;;;;;;;3.33;1.60;;;21.10;44.70;;;;;;5032591;28;20026;-34
2021/05/08 00:22:34;;;;;;;2.65;1.42;;;21.10;44.70;;;;;;5033158;28;20091;-34
2021/05/08 00:25:00;;;;;;;2.00;1.25;;;21.10;44.60;;;;;;5034122;28;20060;-34
2021/05/08 00:27:25;;;;;;;3.65;1.50;;;21.10;44.60;;;;;;5033092;28;20087;-42
2021/05/08 00:29:51;;;;;;;2.22;1.30;;;21.10;44.70;;;;;;5032771;28;20116;-33
2021/05/08 00:32:17;;;;;;;3.22;1.50;;;21.10;44.60;;;;;;5033981;28;20425;-34
2021/05/08 00:34:42;;;;;;;1.63;1.25;;;21.00;44.60;;;;;;5034460;28;20459;-33
2021/05/08 00:37:08;;;;;;;3.40;1.42;;;21.10;44.60;;;;;;5030675;28;20425;-34
2021/05/08 00:39:34;;;;;;;2.17;1.13;;;21.00;44.50;;;;;;5034076;28;20541;-33
2021/05/08 00:42:00;;;;;;;3.22;1.15;;;21.00;44.50;;;;;;5035210;28;20108;-33
2021/05/08 00:44:26;;;;;;;1.88;0.90;;;21.00;44.40;;;;;;5082327;28;20536;-42
2021/05/08 00:46:52;;;;;;;3.70;1.20;;;21.00;44.50;;;;;;5066973;28;20021;-34
2021/05/08 00:49:20;;;;;;;2.28;1.25;;;21.00;44.40;;;;;;5035039;28;20026;-34
2021/05/08 00:51:46;;;;;;;1.85;1.52;;;21.00;44.40;;;;;;5032484;28;20037;-34
2021/05/08 00:54:12;;;;;;;2.38;1.60;;;21.00;44.40;;;;;;5033577;28;20061;-34
2021/05/08 00:56:38;;;;;;;2.05;1.40;;;21.00;44.40;;;;;;5033102;28;20057;-34
2021/05/08 00:59:03;;;;;;;3.67;1.77;;;21.00;44.40;;;;;;5033287;28;20053;-34
2021/05/08 01:01:29;;;;;;;1.15;0.88;;;21.00;44.40;;;;;;5033670;28;20034;-34
2021/05/08 01:03:55;;;;;;;1.63;1.30;;;20.90;44.30;;;;;;5034586;28;20029;-34
2021/05/08 01:06:20;;;;;;;2.20;1.20;;;20.90;44.30;;;;;;5034333;28;20040;-33
2021/05/08 01:08:48;;;;;;;2.22;1.30;;;20.90;44.30;;;;;;5032152;28;20037;-34
2021/05/08 01:11:15;;;;;;;2.33;1.60;;;20.90;44.30;;;;;;5033331;28;20036;-33
2021/05/08 01:13:42;;;;;;;1.48;1.25;;;20.90;44.20;;;;;;5033821;28;20033;-33
2021/05/08 01:16:08;;;;;;;1.77;1.05;;;20.90;44.20;;;;;;5033942;28;20041;-34
2021/05/08 01:18:34;;;;;;;2.88;1.40;;;20.90;44.20;;;;;;5033546;28;20025;-34
2021/05/08 01:21:00;;;;;;;3.28;1.25;;;20.90;44.20;;;;;;5033775;28;20488;-33
2021/05/08 01:23:26;;;;;;;3.00;1.45;;;20.90;44.20;;;;;;5032671;28;20040;-42
2021/05/08 01:25:52;;;;;;;2.15;1.23;;;20.90;44.20;;;;;;5033186;28;20475;-34
2021/05/08 01:28:17;;;;;;;1.85;1.35;;;20.90;44.20;;;;;;5032975;28;20033;-34
2021/05/08 01:30:43;;;;;;;1.50;1.20;;;20.90;44.20;;;;;;5028880;28;20029;-34
2021/05/08 01:33:09;;;;;;;2.95;1.40;;;20.90;44.20;;;;;;5033753;28;20037;-33
2021/05/08 01:35:36;;;;;;;2.45;1.20;;;20.90;44.20;;;;;;5033323;28;20021;-34
2021/05/08 01:38:02;;;;;;;2.42;1.42;;;20.90;44.10;;;;;;5034001;28;20021;-33
2021/05/08 01:40:33;;;;;;;2.33;1.30;;;20.90;44.10;;;;;;5065164;28;20029;-41
2021/05/08 01:42:59;;;;;;;2.78;1.30;;;20.90;44.10;;;;;;5033901;28;20060;-34
2021/05/08 01:45:26;;;;;;;1.77;1.10;;;20.80;44.10;;;;;;5065583;28;20470;-41
2021/05/08 01:47:52;;;;;;;2.13;1.30;;;20.80;44.10;;;;;;5032360;28;20033;-34
2021/05/08 01:50:21;;;;;;;3.10;1.27;;;20.80;44.00;;;;;;5033716;28;20386;-34
2021/05/08 01:52:47;;;;;;;1.98;1.10;;;20.90;44.10;;;;;;5032662;28;20152;-33
2021/05/08 01:55:18;;;;;;;2.33;1.25;;;20.80;44.00;;;;;;5032525;28;20051;-34
2021/05/08 01:57:58;;;;;;;5.55;1.60;;;20.80;44.00;;;;;;5032818;28;20086;-34
2021/05/08 02:00:27;;;;;;;1.90;1.33;;;20.80;44.00;;;;;;5033454;28;20037;-34
2021/05/08 02:02:55;;;;;;;2.95;1.40;;;20.80;43.90;;;;;;5033605;28;20033;-33
2021/05/08 02:05:22;;;;;;;2.50;1.42;;;20.80;43.90;;;;;;5032101;28;20029;-34
2021/05/08 02:07:51;;;;;;;1.45;1.10;;;20.80;43.90;;;;;;5032468;28;20025;-34
2021/05/08 02:10:17;;;;;;;1.55;0.90;;;20.80;43.90;;;;;;5032290;28;20120;-34
2021/05/08 02:12:43;;;;;;;2.00;1.25;;;20.80;43.90;;;;;;5031429;28;20518;-34
2021/05/08 02:15:17;;;;;;;1.60;1.10;;;20.80;43.90;;;;;;5032117;28;20324;-34
2021/05/08 02:17:43;;;;;;;2.33;1.10;;;20.80;43.90;;;;;;5032282;28;20030;-34
2021/05/08 02:20:21;;;;;;;3.17;1.42;;;20.80;43.90;;;;;;5032547;28;20051;-34
2021/05/08 02:22:46;;;;;;;1.98;1.10;;;20.80;43.80;;;;;;5030841;28;20036;-34
2021/05/08 02:25:13;;;;;;;1.50;1.10;;;20.80;43.90;;;;;;5029641;28;20041;-33
2021/05/08 02:27:39;;;;;;;1.38;1.08;;;20.80;43.90;;;;;;5032093;28;20482;-34
2021/05/08 02:30:11;;;;;;;1.80;1.13;;;20.80;43.90;;;;;;5033112;28;20119;-34
2021/05/08 02:32:37;;;;;;;3.63;1.17;;;20.80;43.80;;;;;;5064359;28;20040;-34
2021/05/08 02:35:04;;;;;;;1.30;1.00;;;20.80;43.90;;;;;;5064754;28;20488;-34
2021/05/08 02:37:32;;;;;;;2.38;1.30;;;20.80;43.90;;;;;;5064057;28;20052;-39
2021/05/08 02:39:58;;;;;;;2.10;1.35;;;20.80;43.80;;;;;;5064863;28;20036;-34
2021/05/08 02:42:23;;;;;;;3.50;1.33;;;20.80;43.80;;;;;;5032792;28;20033;-34
2021/05/08 02:44:49;;;;;;;1.50;1.00;;;20.80;43.90;;;;;;5032095;28;20121;-34
2021/05/08 02:47:19;;;;;;;2.00;1.05;;;20.80;43.90;;;;;;5033025;28;20032;-34
2021/05/08 02:49:49;;;;;;;3.78;1.48;;;20.80;43.90;;;;;;5031768;28;20025;-34
2021/05/08 02:52:16;;;;;;;2.63;1.30;;;20.80;43.90;;;;;;5032705;28;20108;-34
2021/05/08 02:54:41;;;;;;;1.17;1.00;;;20.70;43.80;;;;;;5031938;28;20022;-33
2021/05/08 02:57:07;;;;;;;2.28;1.13;;;20.70;43.80;;;;;;5032639;28;20045;-34
2021/05/08 02:59:33;;;;;;;1.45;1.00;;;20.70;43.80;;;;;;5031362;28;20053;-34
2021/05/08 03:02:00;;;;;;;1.60;1.15;;;20.70;43.80;;;;;;5031152;28;20044;-34
2021/05/08 03:04:26;;;;;;;4.05;1.20;;;20.70;43.80;;;;;;5031154;28;20029;-34
2021/05/08 03:06:52;;;;;;;2.60;1.17;;;20.70;43.80;;;;;;5031597;28;20025;-34
2021/05/08 03:09:17;;;;;;;2.20;1.30;;;20.70;43.80;;;;;;5031175;28;20036;-33
2021/05/08 03:11:43;;;;;;;2.47;1.38;;;20.70;43.80;;;;;;5031256;28;20033;-34
2021/05/08 03:14:09;;;;;;;1.73;1.10;;;20.70;43.80;;;;;;5032418;28;20030;-34
2021/05/08 03:16:38;;;;;;;1.70;1.20;;;20.70;43.70;;;;;;5031531;28;20064;-34
2021/05/08 03:19:04;;;;;;;1.67;1.23;;;20.70;43.80;;;;;;5030032;28;20030;-34
2021/05/08 03:21:31;;;;;;;1.95;1.15;;;20.70;43.80;;;;;;5029590;28;20029;-45
2021/05/08 03:23:58;;;;;;;1.35;1.10;;;20.70;43.80;;;;;;5030935;28;20528;-34
2021/05/08 03:26:23;;;;;;;2.13;1.20;;;20.70;43.80;;;;;;5032148;28;20374;-34
2021/05/08 03:28:49;;;;;;;1.90;1.08;;;20.70;43.80;;;;;;5029816;28;20025;-34
2021/05/08 03:31:15;;;;;;;1.95;1.00;;;20.70;43.70;;;;;;5030329;28;20033;-33
2021/05/08 03:33:40;;;;;;;2.35;1.40;;;20.70;43.70;;;;;;5029494;28;20075;-34
2021/05/08 03:36:06;;;;;;;2.53;1.25;;;20.70;43.70;;;;;;5031902;28;20018;-33
2021/05/08 03:38:32;;;;;;;1.85;1.10;;;20.70;43.80;;;;;;5029920;28;20032;-42
2021/05/08 03:40:57;;;;;;;1.55;0.90;;;20.70;43.70;;;;;;5031779;28;20382;-34
2021/05/08 03:43:23;;;;;;;1.73;1.20;;;20.70;43.70;;;;;;5031940;28;20041;-34
2021/05/08 03:45:49;;;;;;;1.48;1.20;;;20.70;44.40;;;;;;5029505;28;20021;-34
2021/05/08 03:48:15;;;;;;;1.88;1.00;;;20.70;43.70;;;;;;5031981;28;20029;-34
2021/05/08 03:50:41;;;;;;;1.40;0.95;;;20.70;43.70;;;;;;5029515;28;20056;-34
2021/05/08 03:53:07;;;;;;;1.65;1.10;;;20.70;43.70;;;;;;5032110;28;20517;-34
2021/05/08 03:55:34;;;;;;;1.92;1.10;;;20.70;43.70;;;;;;5031465;28;20476;-39
2021/05/08 03:58:00;;;;;;;1.95;1.30;;;20.70;43.70;;;;;;5031229;28;20410;-34
2021/05/08 04:00:26;;;;;;;2.30;1.38;;;20.70;43.80;;;;;;5031886;28;20039;-34
2021/05/08 04:02:52;;;;;;;2.00;1.10;;;20.70;43.70;;;;;;5029633;28;20358;-34
2021/05/08 04:05:18;;;;;;;2.55;1.23;;;20.70;43.70;;;;;;5030606;28;20533;-34
2021/05/08 04:07:44;;;;;;;1.92;1.20;;;20.70;43.70;;;;;;5029121;28;20030;-34
2021/05/08 04:10:10;;;;;;;1.40;1.10;;;20.70;43.70;;;;;;5030352;28;20029;-34
2021/05/08 04:12:36;;;;;;;3.83;1.17;;;20.70;43.70;;;;;;5025357;28;20042;-34
2021/05/08 04:15:02;;;;;;;1.52;1.05;;;20.70;43.70;;;;;;5031849;28;20108;-34
2021/05/08 04:17:28;;;;;;;1.67;1.20;;;20.70;43.70;;;;;;5030367;28;20419;-34
2021/05/08 04:19:53;;;;;;;1.23;1.02;;;20.70;43.70;;;;;;5030651;28;20064;-34
2021/05/08 04:22:19;;;;;;;3.38;1.38;;;20.70;43.70;;;;;;5031146;28;20433;-34
2021/05/08 04:24:45;;;;;;;1.88;1.10;;;20.70;43.70;;;;;;5029573;28;20470;-34
2021/05/08 04:27:10;;;;;;;1.45;1.23;;;20.70;43.70;;;;;;5031720;28;20041;-34
2021/05/08 04:29:36;;;;;;;1.88;1.10;;;20.70;44.00;;;;;;5030735;28;20546;-34
2021/05/08 04:32:02;;;;;;;2.35;0.90;;;20.70;43.70;;;;;;5030247;28;20405;-34
2021/05/08 04:34:27;;;;;;;1.95;1.08;;;20.70;43.70;;;;;;5031211;28;20030;-34
2021/05/08 04:36:53;;;;;;;1.88;1.08;;;20.70;43.70;;;;;;5029166;28;20144;-33
2021/05/08 04:39:19;;;;;;;2.80;1.20;;;20.70;43.70;;;;;;5031359;28;20022;-34
2021/05/08 04:41:44;;;;;;;1.75;1.20;;;20.70;43.70;;;;;;5030414;28;20117;-34
2021/05/08 04:44:10;;;;;;;2.13;1.10;;;20.70;43.60;;;;;;5033440;28;20025;-34
2021/05/08 04:46:36;;;;;;;2.67;1.13;;;20.70;43.60;;;;;;5033044;28;20116;-34
2021/05/08 04:49:03;;;;;;;1.92;1.25;;;20.70;43.60;;;;;;5033720;28;20026;-34
2021/05/08 04:51:28;;;;;;;3.55;1.27;;;20.70;43.60;;;;;;5034774;28;20390;-33
2021/05/08 04:53:54;;;;;;;2.47;1.40;;;20.70;43.60;;;;;;5034049;28;20029;-33
2021/05/08 04:56:22;;;;;;;2.10;1.05;;;20.70;43.70;;;;;;5034861;28;20025;-34
2021/05/08 04:58:48;;;;;;;2.50;1.73;;;20.70;43.70;;;;;;5033497;28;20053;-34
2021/05/08 05:01:13;;;;;;;2.13;1.13;;;20.70;43.60;;;;;;5034824;28;20036;-33
2021/05/08 05:03:39;;;;;;;1.85;1.40;;;20.70;43.50;;;;;;5032587;28;20039;-34
2021/05/08 05:06:05;;;;;;;3.35;1.40;;;20.70;43.60;;;;;;5030788;28;20480;-40
2021/05/08 05:08:31;;;;;;;2.30;1.73;;;20.70;43.60;;;;;;5033805;28;20478;-43
2021/05/08 05:10:56;;;;;;;5.30;1.30;;;20.70;43.60;;;;;;5066044;28;20485;-33
2021/05/08 05:13:23;;;;;;;2.38;1.27;;;20.70;43.60;;;;;;5033263;28;20030;-34
2021/05/08 05:15:50;;;;;;;1.40;0.95;;;20.80;43.60;;;;;;5033705;28;20044;-34
2021/05/08 05:18:16;;;;;;;2.03;1.48;;;20.70;43.50;;;;;;5034327;28;20025;-34
2021/05/08 05:20:42;;;;;;;1.80;1.23;;;20.70;43.50;;;;;;5033575;28;20084;-33
2021/05/08 05:23:09;;;;;;;2.08;1.30;;;20.70;43.50;;;;;;5032957;28;20458;-34
2021/05/08 05:25:35;;;;;;;5.05;1.30;;;20.70;43.50;;;;;;5033694;28;20030;-42
2021/05/08 05:28:01;;;;;;;2.67;1.20;;;20.80;43.50;;;;;;5033020;28;20041;-34
2021/05/08 05:30:28;;;;;;;2.20;1.42;;;20.80;43.60;;;;;;5014929;28;20390;-33
2021/05/08 05:32:54;;;;;;;2.15;1.20;;;20.80;43.50;;;;;;5033217;28;20114;-34
2021/05/08 05:35:20;;;;;;;2.03;1.45;;;20.70;43.50;;;;;;5033794;28;20072;-34
2021/05/08 05:37:45;;;;;;;1.50;1.10;;;20.80;43.50;;;;;;5033254;28;20033;-34
2021/05/08 05:40:13;;;;;;;1.80;1.20;;;20.80;43.50;;;;;;5034385;28;20025;-34
2021/05/08 05:42:39;;;;;;;2.28;1.40;;;20.80;43.50;;;;;;5031754;28;20041;-34
2021/05/08 05:45:09;;;;;;;3.92;1.65;;;20.80;43.40;;;;;;5033685;28;20025;-35
2021/05/08 05:47:37;;;;;;;3.60;1.33;;;20.80;43.40;;;;;;5033036;28;20049;-34
2021/05/08 05:50:06;;;;;;;1.77;1.40;;;20.80;43.50;;;;;;5036813;28;20025;-40
2021/05/08 05:52:34;;;;;;;4.55;1.65;;;20.80;43.40;;;;;;5036581;28;20083;-34
2021/05/08 05:55:04;;;;;;;2.55;1.20;;;20.90;43.40;;;;;;5035816;28;20421;-35
2021/05/08 05:57:33;;;;;;;1.88;1.15;;;20.90;43.40;;;;;;5035456;28;20026;-35
2021/05/08 06:00:02;;;;;;;2.40;1.40;;;20.90;43.30;;;;;;5035795;28;20026;-34
2021/05/08 06:02:33;;;;;;;2.35;1.00;;;20.90;43.30;;;;;;5036211;28;20116;-36
2021/05/08 06:05:03;;;;;;;3.10;1.40;;;21.00;43.40;;;;;;5034420;28;20036;-37
2021/05/08 06:07:29;;;;;;;2.65;1.42;;;21.00;43.30;;;;;;5031070;28;20498;-34
2021/05/08 06:09:56;;;;;;;4.18;1.30;;;21.00;43.30;;;;;;5033899;28;20063;-35
2021/05/08 06:12:25;;;;;;;3.85;1.17;;;21.00;43.30;;;;;;5037187;28;20048;-34
2021/05/08 06:14:54;;;;;;;4.20;1.48;;;21.10;43.20;;;;;;5035585;28;20029;-35
2021/05/08 06:17:22;;;;;;;2.08;1.10;;;21.20;42.40;;;;;;5018790;28;20033;-35
2021/05/08 06:19:51;;;;;;;4.43;1.48;;;21.20;42.70;;;;;;5034729;28;20071;-35
2021/05/08 06:22:20;;;;;;;7.90;1.50;;;21.20;43.00;;;;;;5036353;28;20071;-35
2021/05/08 06:24:51;;;;;;;4.00;1.20;;;21.20;43.10;;;;;;5034182;28;20116;-35
2021/05/08 06:27:18;;;;;;;4.53;1.70;;;21.30;43.20;;;;;;5032709;28;20049;-34
2021/05/08 06:29:45;;;;;;;7.00;1.10;;;21.20;43.40;;;;;;5031486;28;20086;-35
2021/05/08 06:32:13;;;;;;;11.50;1.40;;;21.20;43.40;;;;;;5035241;28;20018;-35
2021/05/08 06:34:42;;;;;;;6.43;1.50;;;21.20;43.40;;;;;;5035788;28;20044;-35
2021/05/08 06:37:10;;;;;;;4.70;1.30;;;21.20;43.50;;;;;;5034830;28;20025;-34
2021/05/08 06:39:38;;;;;;;2.50;1.10;;;21.10;43.50;;;;;;5034856;28;20024;-35
2021/05/08 06:42:07;;;;;;;2.70;1.40;;;21.20;43.60;;;;;;5032918;28;20718;-35
2021/05/08 06:44:35;;;;;;;9.68;1.40;;;21.10;43.60;;;;;;5035076;28;20036;-35
2021/05/08 06:47:04;;;;;;;2.08;1.00;;;21.20;43.70;;;;;;5034338;28;20018;-35
2021/05/08 06:49:33;;;;;;;2.85;1.50;;;21.20;43.60;;;;;;5035155;28;20017;-35
2021/05/08 06:52:00;;;;;;;2.97;1.85;;;21.20;43.10;;;;;;5029104;28;20031;-35
2021/05/08 06:54:29;;;;;;;4.68;1.77;;;21.10;43.00;;;;;;5034930;28;20521;-34
2021/05/08 06:56:55;;;;;;;3.53;1.20;;;21.10;43.10;;;;;;5030497;28;20309;-34
2021/05/08 06:59:21;;;;;;;2.40;1.50;;;21.10;43.50;;;;;;5030707;28;20128;-34
2021/05/08 07:01:46;;;;;;;4.85;1.77;;;21.10;43.40;;;;;;5028936;28;20063;-42
2021/05/08 07:04:12;;;;;;;4.03;1.45;;;21.10;42.60;;;;;;5031774;28;20033;-34
2021/05/08 07:06:38;;;;;;;7.50;1.65;;;21.10;41.80;;;;;;5031672;28;20466;-43
2021/05/08 07:09:04;;;;;;;2.83;1.40;;;21.00;40.30;;;;;;5031078;28;20447;-33
2021/05/08 07:11:29;;;;;;;3.90;2.03;;;21.00;39.90;;;;;;5031866;28;20068;-34
2021/05/08 07:13:55;;;;;;;5.47;1.80;;;20.90;40.90;;;;;;5030265;28;20458;-35
2021/05/08 07:16:20;;;;;;;5.13;1.65;;;20.90;37.80;;;;;;5030985;28;20466;-34
2021/05/08 07:18:46;;;;;;;6.78;1.40;;;20.90;39.10;;;;;;5031535;28;20432;-34
2021/05/08 07:21:12;;;;;;;2.65;1.42;;;20.80;38.90;;;;;;5032196;28;20033;-34
2021/05/08 07:23:37;;;;;;;3.85;1.90;;;20.80;38.10;;;;;;5032040;28;20040;-43
2021/05/08 07:26:03;;;;;;;3.90;1.73;;;20.80;38.50;;;;;;5029108;28;20041;-34
2021/05/08 07:28:29;;;;;;;2.10;1.25;;;20.80;38.20;;;;;;5043757;28;20021;-34
2021/05/08 07:30:55;;;;;;;3.35;1.38;;;20.80;37.80;;;;;;5030201;28;20033;-35
2021/05/08 07:33:22;;;;;;;2.00;1.08;;;20.80;37.30;;;;;;5032072;28;20112;-34
2021/05/08 07:35:49;;;;;;;2.42;1.00;;;20.80;37.10;;;;;;5030025;28;20030;-34
2021/05/08 07:38:16;;;;;;;3.17;1.42;;;20.80;38.10;;;;;;5032236;28;20144;-34
2021/05/08 07:40:42;;;;;;;3.70;1.23;;;20.80;37.50;;;;;;5035559;28;20025;-36
2021/05/08 07:43:08;;;;;;;2.50;0.90;;;20.70;37.00;;;;;;5051656;28;20025;-34
2021/05/08 07:45:35;;;;;;;3.67;1.20;;;20.70;38.00;;;;;;5051450;28;20486;-36
2021/05/08 07:48:01;;;;;;;2.28;1.00;;;20.80;35.70;;;;;;5050953;28;20028;-34
2021/05/08 07:50:28;;;;;;;3.05;1.20;;;20.80;36.10;;;;;;5032246;28;20035;-34
2021/05/08 07:52:54;;;;;;;3.28;1.10;;;20.90;37.00;;;;;;5030765;28;20026;-35
2021/05/08 07:55:20;;;;;;;2.17;1.23;;;21.00;37.60;;;;;;5063556;28;20025;-34
2021/05/08 07:57:46;;;;;;;1.27;0.80;;;21.00;38.00;;;;;;5030238;28;20025;-34
2021/05/08 08:00:13;;;;;;;2.17;1.05;;;21.00;38.10;;;;;;5031405;28;20036;-34
2021/05/08 08:02:39;;;;;;;2.08;1.23;;;21.00;38.20;;;;;;5031256;28;20076;-44
2021/05/08 08:05:06;;;;;;;2.20;0.90;;;21.10;38.20;;;;;;5029964;28;20060;-34
2021/05/08 08:07:32;;;;;;;3.35;1.25;;;21.10;38.20;;;;;;5031548;28;20540;-33
2021/05/08 08:09:58;;;;;;;1.83;1.35;;;21.10;38.40;;;;;;5030782;28;20052;-34
2021/05/08 08:12:24;;;;;;;3.42;1.10;;;21.10;38.40;;;;;;5031637;28;20381;-34
2021/05/08 08:14:51;;;;;;;2.08;1.20;;;21.10;38.50;;;;;;5030666;28;20112;-34
2021/05/08 08:17:16;;;;;;;3.25;1.33;;;21.10;38.60;;;;;;5030193;28;20468;-33
2021/05/08 08:19:44;;;;;;;1.83;0.93;;;21.10;38.60;;;;;;5032506;28;20036;-42
2021/05/08 08:22:11;;;;;;;1.75;0.80;;;21.10;38.70;;;;;;5017441;28;20044;-35
2021/05/08 08:24:36;;;;;;;4.15;1.20;;;21.10;38.80;;;;;;5035383;28;20075;-34
2021/05/08 08:27:02;;;;;;;2.60;1.20;;;21.10;39.10;;;;;;5033824;28;20037;-34
2021/05/08 08:29:28;;;;;;;2.88;1.00;;;21.20;38.80;;;;;;5035084;28;20037;-34
2021/05/08 08:31:54;;;;;;;3.92;1.00;;;21.10;38.80;;;;;;5032130;28;20037;-34
2021/05/08 08:34:20;;;;;;;1.77;0.95;;;21.20;39.10;;;;;;5033789;28;20385;-34
2021/05/08 08:36:46;;;;;;;2.60;1.10;;;21.20;38.90;;;;;;5032061;28;20021;-34
2021/05/08 08:39:11;;;;;;;2.58;1.55;;;21.20;39.30;;;;;;5033976;28;20094;-34
2021/05/08 08:41:37;;;;;;;3.65;1.00;;;21.20;39.20;;;;;;5033874;28;20455;-34
2021/05/08 08:44:09;;;;;;;2.00;1.10;;;21.30;39.10;;;;;;5028158;28;20037;-33
2021/05/08 08:46:41;;;;;;;2.65;1.00;;;21.30;39.20;;;;;;5033358;28;20087;-33
2021/05/08 08:49:08;;;;;;;2.55;1.20;;;21.30;39.30;;;;;;5024209;28;20155;-34
2021/05/08 08:51:34;;;;;;;2.78;1.00;;;21.30;39.40;;;;;;5033808;28;20026;-34
2021/05/08 08:54:00;;;;;;;3.88;1.10;;;21.30;40.20;;;;;;5031057;28;20078;-34
2021/05/08 08:56:33;;;;;;;4.90;0.98;;;21.30;40.40;;;;;;5033513;28;20481;-34
2021/05/08 08:59:05;;;;;;;2.85;1.00;;;21.30;39.80;;;;;;5032386;28;20076;-35
2021/05/08 09:01:30;;;;;;;3.92;0.80;;;21.30;39.90;;;;;;5033923;28;20032;-34
2021/05/08 09:03:57;;;;;;;1.58;0.70;;;21.30;41.40;;;;;;5032487;28;20033;-34
2021/05/08 09:06:24;;;;;;;1.75;1.02;;;21.30;40.60;;;;;;5034067;28;20029;-34
2021/05/08 09:08:52;;;;;;;7.35;1.20;;;21.30;36.90;;;;;;5033579;28;20025;-34
2021/05/08 09:11:20;;;;;;;4.38;1.25;;;21.10;38.50;;;;;;5034210;28;20026;-34
2021/05/08 09:13:46;;;;;;;12.68;1.17;;;21.40;37.90;;;;;;5041625;28;20048;-44
2021/05/08 09:16:12;;;;;;;2.38;1.08;;;21.40;38.80;;;;;;5054351;28;20056;-43
2021/05/08 09:18:40;;;;;;;3.20;0.75;;;21.40;38.10;;;;;;5054263;28;20025;-43
2021/05/08 09:21:26;;;;;;;5.43;1.13;;;21.50;38.90;;;;;;5052383;28;20064;-46
2021/05/08 09:23:58;;;;;;;5.40;1.15;;;21.50;39.30;;;;;;5053391;28;20036;-45
2021/05/08 09:26:37;;;;;;;2.90;1.15;;;21.50;39.90;;;;;;5039249;28;20117;-45
2021/05/08 09:29:15;;;;;;;3.10;0.90;;;21.50;40.00;;;;;;5031708;28;20553;-45
2021/05/08 09:32:04;;;;;;;9.65;1.15;;;21.50;40.00;;;;;;5033684;28;20068;-51
2021/05/08 09:34:30;;;;;;;3.28;0.70;;;21.60;40.10;;;;;;5034133;28;20026;-45
2021/05/08 09:36:56;;;;;;;2.03;0.90;;;21.60;40.10;;;;;;5031646;28;20052;-49
2021/05/08 09:39:29;;;;;;;3.38;0.88;;;21.60;40.10;;;;;;5032535;28;20552;-36
2021/05/08 09:41:55;;;;;;;4.70;1.08;;;21.60;40.30;;;;;;5033102;28;20511;-36
2021/05/08 09:44:22;;;;;;;6.35;1.02;;;21.70;40.40;;;;;;5033674;28;20037;-36
2021/05/08 09:46:48;;;;;;;5.10;1.00;;;21.70;40.40;;;;;;5065222;28;20029;-36
2021/05/08 09:49:15;;;;;;;3.50;1.00;;;21.70;40.30;;;;;;5048989;28;20059;-35
2021/05/08 09:51:42;;;;;;;2.10;1.00;;;21.80;40.60;;;;;;5033591;28;20025;-43
2021/05/08 09:54:15;;;;;;;9.45;0.98;;;21.80;40.30;;;;;;5033320;28;20029;-35
2021/05/08 09:56:43;;;;;;;5.80;1.20;;;21.80;40.50;;;;;;5065309;28;20029;-44
2021/05/08 09:59:33;;;;;;;4.53;1.05;;;21.80;40.40;;;;;;5032729;28;20057;-35
2021/05/08 10:02:02;;;;;;;3.08;0.77;;;21.80;40.80;;;;;;5032685;28;20366;-35
2021/05/08 10:04:29;;;;;;;5.90;1.50;;;21.70;40.50;;;;;;5032269;28;20029;-35
2021/05/08 10:07:05;;;;;;;2.92;1.15;;;21.80;40.30;;;;;;5032526;28;20029;-40
2021/05/08 10:09:31;;;;;;;1.80;0.82;;;21.70;40.20;;;;;;5034267;28;20028;-35
2021/05/08 10:12:00;;;;;;;2.97;0.80;;;21.80;40.90;;;;;;5051374;28;20462;-35
2021/05/08 10:14:25;;;;;;;5.70;1.55;;;21.70;41.10;;;;;;5053139;28;20466;-35
2021/05/08 10:16:52;;;;;;;2.13;0.82;;;21.80;40.90;;;;;;5052229;28;20032;-35
2021/05/08 10:19:18;;;;;;;2.90;1.02;;;21.70;40.60;;;;;;5051732;28;20051;-34
2021/05/08 10:21:45;;;;;;;6.30;1.85;;;21.50;40.00;;;;;;5052721;28;20062;-45
2021/05/08 10:24:12;;;;;;;6.43;1.45;;;21.50;40.10;;;;;;5051612;28;20033;-35
2021/05/08 10:26:38;;;;;;;16.27;1.73;;;21.50;40.90;;;;;;5037415;28;20537;-37
2021/05/08 10:29:04;;;;;;;1.50;0.80;;;21.50;40.70;;;;;;5030718;28;20022;-35
2021/05/08 10:31:30;;;;;;;8.25;1.52;;;21.50;40.30;;;;;;5031341;28;20040;-35
2021/05/08 10:33:56;;;;;;;3.53;1.00;;;21.40;40.50;;;;;;5031743;28;20100;-35
2021/05/08 10:36:44;;;;;;;6.07;1.30;;;21.40;40.90;;;;;;5032655;28;20163;-35
2021/05/08 10:39:10;;;;;;;6.10;1.08;;;21.40;40.40;;;;;;5064575;28;20115;-35
2021/05/08 10:41:54;;;;;;;4.18;1.55;;;21.40;40.60;;;;;;5032030;28;20450;-35
2021/05/08 10:44:43;;;;;;;5.15;1.23;;;21.40;40.50;;;;;;5032235;28;20044;-43
2021/05/08 10:47:08;;;;;;;3.92;1.23;;;21.40;40.80;;;;;;5031031;28;20029;-35
2021/05/08 10:49:34;;;;;;;5.53;1.02;;;21.40;41.00;;;;;;5064529;28;20471;-35
2021/05/08 10:52:02;;;;;;;7.57;1.15;;;21.40;41.30;;;;;;5030648;28;20035;-35
2021/05/08 10:54:42;;;;;;;11.88;1.38;;;21.40;41.60;;;;;;5032676;28;20029;-35
2021/05/08 10:57:28;;;;;;;15.63;1.80;;;21.40;41.60;;;;;;5063577;28;20057;-35
2021/05/08 11:00:07;;;;;;;5.93;1.40;;;21.40;41.00;;;;;;5063622;28;20391;-35
2021/05/08 11:02:42;;;;;;;8.52;1.60;;;21.40;40.50;;;;;;5030742;28;20033;-35
2021/05/08 11:05:24;;;;;;;9.68;1.65;;;21.40;42.00;;;;;;5030426;28;20040;-36
2021/05/08 11:07:50;;;;;;;9.55;1.58;;;21.40;40.40;;;;;;5031298;28;20033;-35
2021/05/08 11:10:34;;;;;;;7.03;1.73;;;21.40;39.90;;;;;;5032376;28;20030;-35
2021/05/08 11:13:16;;;;;;;7.43;1.42;;;21.40;39.90;;;;;;5031132;28;20111;-35
2021/05/08 11:15:54;;;;;;;6.03;1.30;;;21.40;40.60;;;;;;5031775;28;20030;-35
2021/05/08 11:18:34;;;;;;;11.98;1.30;;;21.40;40.40;;;;;;5030903;28;20032;-40
2021/05/08 11:21:07;;;;;;;7.63;1.60;;;21.40;41.00;;;;;;5031009;28;20025;-37
2021/05/08 11:23:46;;;;;;;4.72;1.20;;;21.40;41.50;;;;;;5031940;28;20032;-35
2021/05/08 11:28:52;;;;;;;4.65;1.55;;;21.40;41.80;;;;;;5030841;28;20044;-37
2021/05/08 11:31:26;;;;;;;4.90;1.25;;;21.40;41.80;;;;;;5031435;28;20105;-36
2021/05/08 11:33:52;;;;;;;6.00;1.20;;;21.40;40.20;;;;;;5031238;28;20028;-36
2021/05/08 11:36:18;;;;;;;5.85;1.15;;;21.40;39.10;;;;;;5063974;28;20036;-35
2021/05/08 11:38:44;;;;;;;6.07;2.10;;;21.40;41.30;;;;;;5063942;28;20079;-35
2021/05/08 11:41:24;;;;;;;3.63;1.02;;;21.40;41.60;;;;;;5031034;28;20025;-35
2021/05/08 11:43:54;;;;;;;5.78;1.05;;;21.40;39.80;;;;;;5030916;28;20036;-48
2021/05/08 11:46:30;;;;;;;10.35;1.25;;;21.40;40.00;;;;;;5010694;28;20075;-35
2021/05/08 11:48:57;;;;;;;7.35;1.30;;;21.40;39.70;;;;;;5011213;28;20489;-36
2021/05/08 11:51:23;;;;;;;5.97;1.17;;;21.40;39.50;;;;;;5010420;28;20030;-35
2021/05/08 11:54:05;;;;;;;4.78;1.00;;;21.40;38.70;;;;;;5013743;28;20494;-45
2021/05/08 11:56:32;;;;;;;5.82;1.48;;;21.40;39.10;;;;;;5030326;28;20032;-35
2021/05/08 11:59:00;;;;;;;4.72;1.48;;;21.40;38.30;;;;;;5033373;28;20521;-36
2021/05/08 12:01:26;;;;;;;1.00;0.90;;;21.40;38.00;;;;;;5035838;28;20038;-35
2021/05/08 12:03:56;;;;;;;7.63;1.35;;;21.40;37.50;;;;;;5035134;28;20033;-44
2021/05/08 12:06:23;;;;;;;6.35;1.15;;;21.40;37.80;;;;;;5035709;28;20386;-35
2021/05/08 12:08:49;;;;;;;8.25;1.35;;;21.40;38.20;;;;;;5034178;28;20037;-45
2021/05/08 12:11:18;;;;;;;5.63;1.10;;;21.40;38.90;;;;;;5027935;28;20026;-35
2021/05/08 12:13:44;;;;;;;5.80;1.67;;;21.40;38.40;;;;;;5035801;28;20348;-35
2021/05/08 12:16:10;;;;;;;3.55;1.20;;;21.40;39.30;;;;;;5016685;28;20040;-35
2021/05/08 12:18:37;;;;;;;4.85;1.20;;;21.40;39.60;;;;;;5035083;28;20026;-35
2021/05/08 12:21:04;;;;;;;6.53;1.38;;;21.30;40.10;;;;;;5032131;28;20033;-35
2021/05/08 12:23:30;;;;;;;7.65;1.45;;;21.40;39.70;;;;;;5034229;28;20045;-36
2021/05/08 12:26:05;;;;;;;5.15;1.02;;;21.30;39.70;;;;;;5034265;28;20371;-36
2021/05/08 12:28:32;;;;;;;4.68;1.27;;;21.30;40.40;;;;;;5033775;28;20033;-35
2021/05/08 12:30:59;;;;;;;3.75;1.50;;;21.30;40.50;;;;;;5033656;28;20036;-39
2021/05/08 12:33:26;;;;;;;2.85;0.80;;;21.30;39.50;;;;;;5033039;28;20034;-35
2021/05/08 12:35:56;;;;;;;2.83;1.10;;;21.30;39.90;;;;;;5032325;28;20029;-47
2021/05/08 12:38:21;;;;;;;5.30;1.88;;;21.30;39.50;;;;;;5033863;28;20029;-35
2021/05/08 12:40:51;;;;;;;4.35;1.35;;;21.30;39.90;;;;;;5032778;28;20455;-35
2021/05/08 12:43:30;;;;;;;7.38;1.13;;;21.30;40.40;;;;;;5034722;28;20458;-35
2021/05/08 12:46:06;;;;;;;4.60;1.00;;;21.30;40.50;;;;;;5034286;28;20040;-35
2021/05/08 12:48:38;;;;;;;4.28;1.10;;;21.40;40.40;;;;;;5033768;28;20371;-35
2021/05/08 12:51:24;;;;;;;2.47;0.95;;;21.40;39.90;;;;;;5045783;28;20527;-35